sensor_id;sensor_type;location;lat;lon;timestamp;P1;durP1;ratioP1;P2;durP2;ratioP2
51358;SDS011;37448;51.588;7.248;2023-08-12T00:00:01;12.93;;;8.50;;
51358;SDS011;37448;51.588;7.248;2023-08-12T00:02:21;11.32;;;7.57;;
51358;SDS011;37448;51.588;7.248;2023-08-12T00:04:21;11.30;;;7.40;;
51358;SDS011;37448;51.588;7.248;2023-08-12T00:06:21;10.70;;;8.27;;
51358;SDS011;37448;51.588;7.248;2023-08-12T00:08:22;11.40;;;8.05;;
51358;SDS011;37448;51.588;7.248;2023-08-12T00:10:22;11.30;;;8.00;;
51358;SDS011;37448;51.588;7.248;2023-08-12T00:12:23;11.43;;;7.80;;
51358;SDS011;37448;51.588;7.248;2023-08-12T00:14:23;10.13;;;8.23;;
51358;SDS011;37448;51.588;7.248;2023-08-12T00:16:23;11.25;;;7.75;;
51358;SDS011;37448;51.588;7.248;2023-08-12T00:18:24;10.98;;;7.55;;
51358;SDS011;37448;51.588;7.248;2023-08-12T00:20:25;10.82;;;7.65;;
51358;SDS011;37448;51.588;7.248;2023-08-12T00:22:25;10.40;;;7.45;;
51358;SDS011;37448;51.588;7.248;2023-08-12T00:24:25;12.00;;;7.97;;
51358;SDS011;37448;51.588;7.248;2023-08-12T00:26:26;9.98;;;7.50;;
51358;SDS011;37448;51.588;7.248;2023-08-12T00:28:27;10.57;;;7.32;;
51358;SDS011;37448;51.588;7.248;2023-08-12T00:30:27;12.90;;;8.57;;
51358;SDS011;37448;51.588;7.248;2023-08-12T00:32:28;9.15;;;7.57;;
51358;SDS011;37448;51.588;7.248;2023-08-12T00:34:28;8.52;;;7.43;;
51358;SDS011;37448;51.588;7.248;2023-08-12T00:36:29;9.98;;;7.32;;
51358;SDS011;37448;51.588;7.248;2023-08-12T00:38:29;10.18;;;7.97;;
51358;SDS011;37448;51.588;7.248;2023-08-12T00:40:29;10.35;;;8.07;;
51358;SDS011;37448;51.588;7.248;2023-08-12T00:42:30;12.05;;;8.80;;
51358;SDS011;37448;51.588;7.248;2023-08-12T00:44:30;11.90;;;8.75;;
51358;SDS011;37448;51.588;7.248;2023-08-12T00:46:31;13.02;;;8.43;;
51358;SDS011;37448;51.588;7.248;2023-08-12T00:48:32;13.20;;;9.15;;
51358;SDS011;37448;51.588;7.248;2023-08-12T00:50:33;14.65;;;8.73;;
51358;SDS011;37448;51.588;7.248;2023-08-12T00:52:34;11.20;;;8.85;;
51358;SDS011;37448;51.588;7.248;2023-08-12T00:54:35;13.65;;;9.23;;
51358;SDS011;37448;51.588;7.248;2023-08-12T00:56:35;11.23;;;8.85;;
51358;SDS011;37448;51.588;7.248;2023-08-12T00:58:35;10.65;;;8.30;;
51358;SDS011;37448;51.588;7.248;2023-08-12T01:00:36;12.65;;;9.02;;
51358;SDS011;37448;51.588;7.248;2023-08-12T01:02:37;13.35;;;9.70;;
51358;SDS011;37448;51.588;7.248;2023-08-12T01:04:38;14.63;;;9.55;;
51358;SDS011;37448;51.588;7.248;2023-08-12T01:06:39;13.25;;;8.82;;
51358;SDS011;37448;51.588;7.248;2023-08-12T01:08:39;10.98;;;8.88;;
51358;SDS011;37448;51.588;7.248;2023-08-12T01:10:42;12.30;;;8.90;;
51358;SDS011;37448;51.588;7.248;2023-08-12T01:12:49;13.35;;;8.88;;
51358;SDS011;37448;51.588;7.248;2023-08-12T01:17:11;12.27;;;8.88;;
51358;SDS011;37448;51.588;7.248;2023-08-12T01:19:20;14.32;;;9.88;;
51358;SDS011;37448;51.588;7.248;2023-08-12T01:21:43;11.90;;;8.43;;
51358;SDS011;37448;51.588;7.248;2023-08-12T01:23:44;11.00;;;8.88;;
51358;SDS011;37448;51.588;7.248;2023-08-12T01:25:45;13.48;;;9.10;;
51358;SDS011;37448;51.588;7.248;2023-08-12T01:27:45;12.73;;;9.48;;
51358;SDS011;37448;51.588;7.248;2023-08-12T01:29:46;12.55;;;10.23;;
51358;SDS011;37448;51.588;7.248;2023-08-12T01:31:51;14.57;;;10.73;;
51358;SDS011;37448;51.588;7.248;2023-08-12T01:34:00;16.42;;;10.68;;
51358;SDS011;37448;51.588;7.248;2023-08-12T01:36:09;15.10;;;11.15;;
51358;SDS011;37448;51.588;7.248;2023-08-12T01:38:15;17.58;;;12.23;;
51358;SDS011;37448;51.588;7.248;2023-08-12T01:40:18;17.55;;;12.98;;
51358;SDS011;37448;51.588;7.248;2023-08-12T01:42:19;14.60;;;11.07;;
51358;SDS011;37448;51.588;7.248;2023-08-12T01:44:21;16.40;;;12.00;;
51358;SDS011;37448;51.588;7.248;2023-08-12T01:46:21;18.27;;;12.15;;
51358;SDS011;37448;51.588;7.248;2023-08-12T01:48:22;18.60;;;12.23;;
51358;SDS011;37448;51.588;7.248;2023-08-12T01:50:23;17.17;;;12.35;;
51358;SDS011;37448;51.588;7.248;2023-08-12T01:52:24;17.63;;;12.32;;
51358;SDS011;37448;51.588;7.248;2023-08-12T01:54:24;19.27;;;12.15;;
51358;SDS011;37448;51.588;7.248;2023-08-12T01:56:25;18.00;;;12.73;;
51358;SDS011;37448;51.588;7.248;2023-08-12T01:58:25;17.58;;;12.55;;
51358;SDS011;37448;51.588;7.248;2023-08-12T02:00:28;20.42;;;13.32;;
51358;SDS011;37448;51.588;7.248;2023-08-12T02:02:29;21.55;;;13.75;;
51358;SDS011;37448;51.588;7.248;2023-08-12T02:04:29;20.08;;;12.48;;
51358;SDS011;37448;51.588;7.248;2023-08-12T02:06:30;21.02;;;13.65;;
51358;SDS011;37448;51.588;7.248;2023-08-12T02:08:30;18.40;;;12.55;;
51358;SDS011;37448;51.588;7.248;2023-08-12T02:10:31;20.85;;;13.60;;
51358;SDS011;37448;51.588;7.248;2023-08-12T02:12:31;18.75;;;12.15;;
51358;SDS011;37448;51.588;7.248;2023-08-12T02:14:31;16.60;;;11.95;;
51358;SDS011;37448;51.588;7.248;2023-08-12T02:16:32;19.73;;;12.35;;
51358;SDS011;37448;51.588;7.248;2023-08-12T02:18:32;19.13;;;12.10;;
51358;SDS011;37448;51.588;7.248;2023-08-12T02:20:32;19.50;;;12.65;;
51358;SDS011;37448;51.588;7.248;2023-08-12T02:22:35;19.80;;;13.68;;
51358;SDS011;37448;51.588;7.248;2023-08-12T02:24:35;19.40;;;13.23;;
51358;SDS011;37448;51.588;7.248;2023-08-12T02:26:37;20.13;;;13.38;;
51358;SDS011;37448;51.588;7.248;2023-08-12T02:28:38;26.38;;;14.15;;
51358;SDS011;37448;51.588;7.248;2023-08-12T02:30:38;21.02;;;13.15;;
51358;SDS011;37448;51.588;7.248;2023-08-12T02:32:39;20.45;;;13.95;;
51358;SDS011;37448;51.588;7.248;2023-08-12T02:34:39;22.10;;;13.90;;
51358;SDS011;37448;51.588;7.248;2023-08-12T02:36:39;21.25;;;13.52;;
51358;SDS011;37448;51.588;7.248;2023-08-12T02:38:40;20.77;;;14.43;;
51358;SDS011;37448;51.588;7.248;2023-08-12T02:40:40;24.88;;;14.20;;
51358;SDS011;37448;51.588;7.248;2023-08-12T02:42:40;20.33;;;13.82;;
51358;SDS011;37448;51.588;7.248;2023-08-12T02:44:41;20.13;;;13.32;;
51358;SDS011;37448;51.588;7.248;2023-08-12T02:46:41;24.48;;;13.88;;
51358;SDS011;37448;51.588;7.248;2023-08-12T02:48:42;18.17;;;12.40;;
51358;SDS011;37448;51.588;7.248;2023-08-12T02:50:43;20.20;;;13.10;;
51358;SDS011;37448;51.588;7.248;2023-08-12T02:52:43;22.17;;;14.90;;
51358;SDS011;37448;51.588;7.248;2023-08-12T02:54:43;21.13;;;12.48;;
51358;SDS011;37448;51.588;7.248;2023-08-12T02:56:44;19.92;;;12.75;;
51358;SDS011;37448;51.588;7.248;2023-08-12T02:58:44;20.63;;;12.77;;
51358;SDS011;37448;51.588;7.248;2023-08-12T03:00:45;19.55;;;13.90;;
51358;SDS011;37448;51.588;7.248;2023-08-12T03:02:46;19.70;;;13.60;;
51358;SDS011;37448;51.588;7.248;2023-08-12T03:04:46;18.77;;;13.73;;
51358;SDS011;37448;51.588;7.248;2023-08-12T03:06:46;23.20;;;13.90;;
51358;SDS011;37448;51.588;7.248;2023-08-12T03:08:47;21.00;;;13.73;;
51358;SDS011;37448;51.588;7.248;2023-08-12T03:10:49;19.60;;;13.38;;
51358;SDS011;37448;51.588;7.248;2023-08-12T03:12:50;18.25;;;12.00;;
51358;SDS011;37448;51.588;7.248;2023-08-12T03:14:52;24.98;;;14.00;;
51358;SDS011;37448;51.588;7.248;2023-08-12T03:16:53;20.83;;;13.52;;
51358;SDS011;37448;51.588;7.248;2023-08-12T03:18:53;20.48;;;14.32;;
51358;SDS011;37448;51.588;7.248;2023-08-12T03:20:54;22.27;;;13.60;;
51358;SDS011;37448;51.588;7.248;2023-08-12T03:22:57;23.58;;;13.52;;
51358;SDS011;37448;51.588;7.248;2023-08-12T03:24:57;20.30;;;13.23;;
51358;SDS011;37448;51.588;7.248;2023-08-12T03:26:58;19.90;;;13.20;;
51358;SDS011;37448;51.588;7.248;2023-08-12T03:28:58;23.20;;;13.98;;
51358;SDS011;37448;51.588;7.248;2023-08-12T03:30:58;24.17;;;13.60;;
51358;SDS011;37448;51.588;7.248;2023-08-12T03:32:59;19.20;;;12.63;;
51358;SDS011;37448;51.588;7.248;2023-08-12T03:35:03;22.35;;;14.10;;
51358;SDS011;37448;51.588;7.248;2023-08-12T03:37:04;21.35;;;12.43;;
51358;SDS011;37448;51.588;7.248;2023-08-12T03:39:06;23.45;;;13.77;;
51358;SDS011;37448;51.588;7.248;2023-08-12T03:41:06;23.02;;;14.13;;
51358;SDS011;37448;51.588;7.248;2023-08-12T03:43:08;21.73;;;14.95;;
51358;SDS011;37448;51.588;7.248;2023-08-12T03:45:08;21.90;;;13.70;;
51358;SDS011;37448;51.588;7.248;2023-08-12T03:47:09;21.30;;;13.68;;
51358;SDS011;37448;51.588;7.248;2023-08-12T03:49:10;21.70;;;13.88;;
51358;SDS011;37448;51.588;7.248;2023-08-12T03:51:12;20.10;;;13.95;;
51358;SDS011;37448;51.588;7.248;2023-08-12T03:53:12;23.42;;;13.80;;
51358;SDS011;37448;51.588;7.248;2023-08-12T03:55:13;23.33;;;13.70;;
51358;SDS011;37448;51.588;7.248;2023-08-12T03:57:14;21.55;;;14.02;;
51358;SDS011;37448;51.588;7.248;2023-08-12T03:59:15;20.88;;;13.65;;
51358;SDS011;37448;51.588;7.248;2023-08-12T04:01:15;18.55;;;13.07;;
51358;SDS011;37448;51.588;7.248;2023-08-12T04:03:16;23.33;;;14.20;;
51358;SDS011;37448;51.588;7.248;2023-08-12T04:05:16;21.23;;;13.70;;
51358;SDS011;37448;51.588;7.248;2023-08-12T04:07:17;23.30;;;14.07;;
51358;SDS011;37448;51.588;7.248;2023-08-12T04:09:17;21.65;;;12.63;;
51358;SDS011;37448;51.588;7.248;2023-08-12T04:11:18;20.17;;;13.15;;
51358;SDS011;37448;51.588;7.248;2023-08-12T04:13:20;18.98;;;12.00;;
51358;SDS011;37448;51.588;7.248;2023-08-12T04:15:20;16.58;;;12.18;;
51358;SDS011;37448;51.588;7.248;2023-08-12T04:17:20;22.70;;;14.18;;
51358;SDS011;37448;51.588;7.248;2023-08-12T04:19:21;17.05;;;12.68;;
51358;SDS011;37448;51.588;7.248;2023-08-12T04:21:21;16.48;;;11.90;;
51358;SDS011;37448;51.588;7.248;2023-08-12T04:23:22;17.50;;;11.55;;
51358;SDS011;37448;51.588;7.248;2023-08-12T04:25:23;18.70;;;12.27;;
51358;SDS011;37448;51.588;7.248;2023-08-12T04:27:25;19.45;;;12.65;;
51358;SDS011;37448;51.588;7.248;2023-08-12T04:29:26;17.85;;;12.25;;
51358;SDS011;37448;51.588;7.248;2023-08-12T04:31:26;18.77;;;11.55;;
51358;SDS011;37448;51.588;7.248;2023-08-12T04:33:27;19.88;;;12.52;;
51358;SDS011;37448;51.588;7.248;2023-08-12T04:35:27;17.90;;;12.18;;
51358;SDS011;37448;51.588;7.248;2023-08-12T04:37:31;19.55;;;11.57;;
51358;SDS011;37448;51.588;7.248;2023-08-12T04:39:32;22.40;;;12.27;;
51358;SDS011;37448;51.588;7.248;2023-08-12T04:41:33;16.67;;;11.80;;
51358;SDS011;37448;51.588;7.248;2023-08-12T04:43:34;19.85;;;11.98;;
51358;SDS011;37448;51.588;7.248;2023-08-12T04:45:36;17.88;;;11.68;;
51358;SDS011;37448;51.588;7.248;2023-08-12T04:47:37;20.38;;;12.20;;
51358;SDS011;37448;51.588;7.248;2023-08-12T04:49:38;16.65;;;12.23;;
51358;SDS011;37448;51.588;7.248;2023-08-12T04:51:38;17.27;;;11.45;;
51358;SDS011;37448;51.588;7.248;2023-08-12T04:53:38;19.02;;;13.02;;
51358;SDS011;37448;51.588;7.248;2023-08-12T04:55:40;19.75;;;13.00;;
51358;SDS011;37448;51.588;7.248;2023-08-12T04:57:40;18.38;;;12.43;;
51358;SDS011;37448;51.588;7.248;2023-08-12T04:59:40;18.77;;;12.52;;
51358;SDS011;37448;51.588;7.248;2023-08-12T05:01:41;17.80;;;12.45;;
51358;SDS011;37448;51.588;7.248;2023-08-12T05:03:41;16.30;;;11.65;;
51358;SDS011;37448;51.588;7.248;2023-08-12T05:05:43;16.75;;;11.45;;
51358;SDS011;37448;51.588;7.248;2023-08-12T05:07:43;17.20;;;11.80;;
51358;SDS011;37448;51.588;7.248;2023-08-12T05:09:46;16.15;;;11.07;;
51358;SDS011;37448;51.588;7.248;2023-08-12T05:11:48;17.00;;;11.80;;
51358;SDS011;37448;51.588;7.248;2023-08-12T05:13:48;15.50;;;11.50;;
51358;SDS011;37448;51.588;7.248;2023-08-12T05:15:49;13.98;;;10.95;;
51358;SDS011;37448;51.588;7.248;2023-08-12T05:17:51;19.27;;;11.75;;
51358;SDS011;37448;51.588;7.248;2023-08-12T05:19:54;14.98;;;10.88;;
51358;SDS011;37448;51.588;7.248;2023-08-12T05:21:55;16.30;;;11.25;;
51358;SDS011;37448;51.588;7.248;2023-08-12T05:23:55;13.93;;;10.32;;
51358;SDS011;37448;51.588;7.248;2023-08-12T05:25:56;17.80;;;11.60;;
51358;SDS011;37448;51.588;7.248;2023-08-12T05:27:57;17.02;;;11.40;;
51358;SDS011;37448;51.588;7.248;2023-08-12T05:29:57;16.40;;;11.68;;
51358;SDS011;37448;51.588;7.248;2023-08-12T05:31:57;16.90;;;11.52;;
51358;SDS011;37448;51.588;7.248;2023-08-12T05:33:58;16.27;;;10.98;;
51358;SDS011;37448;51.588;7.248;2023-08-12T05:35:58;16.35;;;10.98;;
51358;SDS011;37448;51.588;7.248;2023-08-12T05:37:58;15.57;;;10.40;;
51358;SDS011;37448;51.588;7.248;2023-08-12T05:39:59;16.13;;;11.05;;
51358;SDS011;37448;51.588;7.248;2023-08-12T05:41:59;16.48;;;10.38;;
51358;SDS011;37448;51.588;7.248;2023-08-12T05:44:00;13.82;;;10.88;;
51358;SDS011;37448;51.588;7.248;2023-08-12T05:46:00;13.98;;;10.25;;
51358;SDS011;37448;51.588;7.248;2023-08-12T05:48:00;12.45;;;9.82;;
51358;SDS011;37448;51.588;7.248;2023-08-12T05:50:01;14.98;;;10.63;;
51358;SDS011;37448;51.588;7.248;2023-08-12T05:52:01;18.55;;;11.05;;
51358;SDS011;37448;51.588;7.248;2023-08-12T05:54:02;13.18;;;10.10;;
51358;SDS011;37448;51.588;7.248;2023-08-12T05:56:02;12.13;;;9.43;;
51358;SDS011;37448;51.588;7.248;2023-08-12T05:58:03;13.82;;;9.55;;
51358;SDS011;37448;51.588;7.248;2023-08-12T06:00:04;13.88;;;10.02;;
51358;SDS011;37448;51.588;7.248;2023-08-12T06:02:11;14.18;;;9.80;;
51358;SDS011;37448;51.588;7.248;2023-08-12T06:04:12;13.25;;;9.90;;
51358;SDS011;37448;51.588;7.248;2023-08-12T06:06:12;13.52;;;9.75;;
51358;SDS011;37448;51.588;7.248;2023-08-12T06:08:13;12.93;;;9.73;;
51358;SDS011;37448;51.588;7.248;2023-08-12T06:10:13;14.05;;;9.93;;
51358;SDS011;37448;51.588;7.248;2023-08-12T06:12:14;17.08;;;9.52;;
51358;SDS011;37448;51.588;7.248;2023-08-12T06:14:14;11.85;;;9.18;;
51358;SDS011;37448;51.588;7.248;2023-08-12T06:16:14;11.30;;;8.23;;
51358;SDS011;37448;51.588;7.248;2023-08-12T06:18:15;13.75;;;9.18;;
51358;SDS011;37448;51.588;7.248;2023-08-12T06:20:15;13.85;;;9.18;;
51358;SDS011;37448;51.588;7.248;2023-08-12T06:22:16;13.90;;;8.50;;
51358;SDS011;37448;51.588;7.248;2023-08-12T06:24:16;11.65;;;7.50;;
51358;SDS011;37448;51.588;7.248;2023-08-12T06:26:17;12.18;;;7.75;;
51358;SDS011;37448;51.588;7.248;2023-08-12T06:28:17;9.45;;;7.35;;
51358;SDS011;37448;51.588;7.248;2023-08-12T06:30:18;12.32;;;8.50;;
51358;SDS011;37448;51.588;7.248;2023-08-12T06:32:18;12.60;;;7.90;;
51358;SDS011;37448;51.588;7.248;2023-08-12T06:34:18;10.00;;;7.05;;
51358;SDS011;37448;51.588;7.248;2023-08-12T06:36:19;11.73;;;7.70;;
51358;SDS011;37448;51.588;7.248;2023-08-12T06:38:19;11.27;;;8.07;;
51358;SDS011;37448;51.588;7.248;2023-08-12T06:40:19;11.80;;;7.97;;
51358;SDS011;37448;51.588;7.248;2023-08-12T06:42:20;12.32;;;8.13;;
51358;SDS011;37448;51.588;7.248;2023-08-12T06:44:23;14.50;;;8.68;;
51358;SDS011;37448;51.588;7.248;2023-08-12T06:46:23;11.50;;;8.77;;
51358;SDS011;37448;51.588;7.248;2023-08-12T06:48:24;14.07;;;9.13;;
51358;SDS011;37448;51.588;7.248;2023-08-12T06:50:24;12.30;;;8.98;;
51358;SDS011;37448;51.588;7.248;2023-08-12T06:52:24;11.20;;;8.50;;
51358;SDS011;37448;51.588;7.248;2023-08-12T06:54:25;13.35;;;9.30;;
51358;SDS011;37448;51.588;7.248;2023-08-12T06:56:25;12.40;;;9.50;;
51358;SDS011;37448;51.588;7.248;2023-08-12T06:58:25;12.82;;;8.02;;
51358;SDS011;37448;51.588;7.248;2023-08-12T07:00:26;10.80;;;9.13;;
51358;SDS011;37448;51.588;7.248;2023-08-12T07:02:27;14.80;;;8.68;;
51358;SDS011;37448;51.588;7.248;2023-08-12T07:04:27;13.30;;;8.65;;
51358;SDS011;37448;51.588;7.248;2023-08-12T07:06:28;12.18;;;7.97;;
51358;SDS011;37448;51.588;7.248;2023-08-12T07:08:28;12.38;;;8.30;;
51358;SDS011;37448;51.588;7.248;2023-08-12T07:10:28;11.27;;;7.72;;
51358;SDS011;37448;51.588;7.248;2023-08-12T07:12:29;11.88;;;7.22;;
51358;SDS011;37448;51.588;7.248;2023-08-12T07:14:29;12.50;;;7.30;;
51358;SDS011;37448;51.588;7.248;2023-08-12T07:16:30;10.73;;;6.43;;
51358;SDS011;37448;51.588;7.248;2023-08-12T07:18:30;11.55;;;6.97;;
51358;SDS011;37448;51.588;7.248;2023-08-12T07:20:31;9.30;;;6.05;;
51358;SDS011;37448;51.588;7.248;2023-08-12T07:22:31;8.93;;;4.97;;
51358;SDS011;37448;51.588;7.248;2023-08-12T07:24:32;6.90;;;4.28;;
51358;SDS011;37448;51.588;7.248;2023-08-12T07:26:32;5.50;;;4.47;;
51358;SDS011;37448;51.588;7.248;2023-08-12T07:28:32;6.50;;;4.55;;
51358;SDS011;37448;51.588;7.248;2023-08-12T07:30:35;6.13;;;4.70;;
51358;SDS011;37448;51.588;7.248;2023-08-12T07:34:37;5.95;;;4.00;;
51358;SDS011;37448;51.588;7.248;2023-08-12T07:36:37;10.52;;;4.75;;
51358;SDS011;37448;51.588;7.248;2023-08-12T07:38:37;5.60;;;4.50;;
51358;SDS011;37448;51.588;7.248;2023-08-12T07:40:38;6.28;;;4.35;;
51358;SDS011;37448;51.588;7.248;2023-08-12T07:42:38;7.70;;;4.40;;
51358;SDS011;37448;51.588;7.248;2023-08-12T07:44:39;6.85;;;4.35;;
51358;SDS011;37448;51.588;7.248;2023-08-12T07:46:39;7.22;;;5.18;;
51358;SDS011;37448;51.588;7.248;2023-08-12T07:48:39;5.85;;;4.03;;
51358;SDS011;37448;51.588;7.248;2023-08-12T07:50:40;5.38;;;4.38;;
51358;SDS011;37448;51.588;7.248;2023-08-12T07:52:40;5.40;;;3.90;;
51358;SDS011;37448;51.588;7.248;2023-08-12T07:54:41;5.00;;;4.35;;
51358;SDS011;37448;51.588;7.248;2023-08-12T07:56:41;4.40;;;3.53;;
51358;SDS011;37448;51.588;7.248;2023-08-12T07:58:41;4.43;;;3.50;;
51358;SDS011;37448;51.588;7.248;2023-08-12T08:00:42;7.28;;;4.18;;
51358;SDS011;37448;51.588;7.248;2023-08-12T08:02:43;4.90;;;3.75;;
51358;SDS011;37448;51.588;7.248;2023-08-12T08:04:43;6.07;;;3.92;;
51358;SDS011;37448;51.588;7.248;2023-08-12T08:06:44;6.03;;;4.00;;
51358;SDS011;37448;51.588;7.248;2023-08-12T08:08:44;4.28;;;3.50;;
51358;SDS011;37448;51.588;7.248;2023-08-12T08:10:45;5.40;;;3.70;;
51358;SDS011;37448;51.588;7.248;2023-08-12T08:12:45;7.10;;;3.40;;
51358;SDS011;37448;51.588;7.248;2023-08-12T08:14:46;4.40;;;3.22;;
51358;SDS011;37448;51.588;7.248;2023-08-12T08:16:46;5.25;;;3.92;;
51358;SDS011;37448;51.588;7.248;2023-08-12T08:18:47;3.53;;;3.03;;
51358;SDS011;37448;51.588;7.248;2023-08-12T08:20:47;5.45;;;3.17;;
51358;SDS011;37448;51.588;7.248;2023-08-12T08:22:48;6.03;;;3.40;;
51358;SDS011;37448;51.588;7.248;2023-08-12T08:24:48;3.30;;;2.67;;
51358;SDS011;37448;51.588;7.248;2023-08-12T08:26:49;5.13;;;2.83;;
51358;SDS011;37448;51.588;7.248;2023-08-12T08:28:49;4.35;;;3.08;;
51358;SDS011;37448;51.588;7.248;2023-08-12T08:30:49;3.78;;;2.90;;
51358;SDS011;37448;51.588;7.248;2023-08-12T08:32:50;4.13;;;3.00;;
51358;SDS011;37448;51.588;7.248;2023-08-12T08:34:50;4.40;;;2.72;;
51358;SDS011;37448;51.588;7.248;2023-08-12T08:36:50;3.72;;;2.78;;
51358;SDS011;37448;51.588;7.248;2023-08-12T08:38:51;3.33;;;2.50;;
51358;SDS011;37448;51.588;7.248;2023-08-12T08:40:51;4.90;;;2.83;;
51358;SDS011;37448;51.588;7.248;2023-08-12T08:42:52;4.68;;;3.17;;
51358;SDS011;37448;51.588;7.248;2023-08-12T08:44:53;3.70;;;3.00;;
51358;SDS011;37448;51.588;7.248;2023-08-12T08:46:56;4.18;;;2.72;;
51358;SDS011;37448;51.588;7.248;2023-08-12T08:48:59;3.80;;;2.75;;
51358;SDS011;37448;51.588;7.248;2023-08-12T08:51:03;4.30;;;2.70;;
51358;SDS011;37448;51.588;7.248;2023-08-12T08:53:06;3.65;;;2.75;;
51358;SDS011;37448;51.588;7.248;2023-08-12T08:55:06;4.95;;;3.28;;
51358;SDS011;37448;51.588;7.248;2023-08-12T08:57:07;4.25;;;3.85;;
51358;SDS011;37448;51.588;7.248;2023-08-12T08:59:08;5.03;;;3.20;;
51358;SDS011;37448;51.588;7.248;2023-08-12T09:01:09;4.85;;;3.70;;
51358;SDS011;37448;51.588;7.248;2023-08-12T09:03:12;4.00;;;3.10;;
51358;SDS011;37448;51.588;7.248;2023-08-12T09:05:14;5.97;;;3.75;;
51358;SDS011;37448;51.588;7.248;2023-08-12T09:07:15;4.25;;;3.30;;
51358;SDS011;37448;51.588;7.248;2023-08-12T09:09:16;4.07;;;3.65;;
51358;SDS011;37448;51.588;7.248;2023-08-12T09:11:19;6.18;;;3.90;;
51358;SDS011;37448;51.588;7.248;2023-08-12T09:13:19;4.80;;;3.63;;
51358;SDS011;37448;51.588;7.248;2023-08-12T09:15:20;4.45;;;3.38;;
51358;SDS011;37448;51.588;7.248;2023-08-12T09:17:20;8.05;;;4.25;;
51358;SDS011;37448;51.588;7.248;2023-08-12T09:19:21;4.43;;;3.75;;
51358;SDS011;37448;51.588;7.248;2023-08-12T09:21:22;6.57;;;3.83;;
51358;SDS011;37448;51.588;7.248;2023-08-12T09:23:23;5.68;;;3.75;;
51358;SDS011;37448;51.588;7.248;2023-08-12T09:25:29;4.00;;;3.63;;
51358;SDS011;37448;51.588;7.248;2023-08-12T09:27:30;4.18;;;3.78;;
51358;SDS011;37448;51.588;7.248;2023-08-12T09:29:32;4.43;;;3.78;;
51358;SDS011;37448;51.588;7.248;2023-08-12T09:31:33;5.28;;;3.65;;
51358;SDS011;37448;51.588;7.248;2023-08-12T09:33:39;4.50;;;3.80;;
51358;SDS011;37448;51.588;7.248;2023-08-12T09:35:40;5.07;;;4.07;;
51358;SDS011;37448;51.588;7.248;2023-08-12T09:37:41;4.30;;;3.65;;
51358;SDS011;37448;51.588;7.248;2023-08-12T09:39:41;4.55;;;3.75;;
51358;SDS011;37448;51.588;7.248;2023-08-12T09:41:42;4.10;;;3.72;;
51358;SDS011;37448;51.588;7.248;2023-08-12T09:43:43;5.15;;;3.83;;
51358;SDS011;37448;51.588;7.248;2023-08-12T09:45:44;3.90;;;3.47;;
51358;SDS011;37448;51.588;7.248;2023-08-12T09:47:45;4.03;;;3.65;;
51358;SDS011;37448;51.588;7.248;2023-08-12T09:49:46;3.97;;;3.58;;
51358;SDS011;37448;51.588;7.248;2023-08-12T09:51:46;5.07;;;3.65;;
51358;SDS011;37448;51.588;7.248;2023-08-12T09:53:47;5.45;;;3.60;;
51358;SDS011;37448;51.588;7.248;2023-08-12T09:55:49;4.13;;;3.10;;
51358;SDS011;37448;51.588;7.248;2023-08-12T09:57:53;6.03;;;3.53;;
51358;SDS011;37448;51.588;7.248;2023-08-12T09:59:54;3.45;;;3.15;;
51358;SDS011;37448;51.588;7.248;2023-08-12T10:01:57;4.40;;;3.38;;
51358;SDS011;37448;51.588;7.248;2023-08-12T10:03:58;3.97;;;3.35;;
51358;SDS011;37448;51.588;7.248;2023-08-12T10:05:59;3.35;;;3.05;;
51358;SDS011;37448;51.588;7.248;2023-08-12T10:08:00;3.35;;;3.03;;
51358;SDS011;37448;51.588;7.248;2023-08-12T10:10:03;4.35;;;2.80;;
51358;SDS011;37448;51.588;7.248;2023-08-12T10:12:06;2.67;;;2.47;;
51358;SDS011;37448;51.588;7.248;2023-08-12T10:14:07;3.45;;;3.05;;
51358;SDS011;37448;51.588;7.248;2023-08-12T10:16:09;3.20;;;2.42;;
51358;SDS011;37448;51.588;7.248;2023-08-12T10:18:10;3.17;;;2.53;;
51358;SDS011;37448;51.588;7.248;2023-08-12T10:20:12;6.35;;;2.88;;
51358;SDS011;37448;51.588;7.248;2023-08-12T10:22:14;3.10;;;2.40;;
51358;SDS011;37448;51.588;7.248;2023-08-12T10:24:16;4.05;;;2.38;;
51358;SDS011;37448;51.588;7.248;2023-08-12T10:26:17;3.08;;;2.10;;
51358;SDS011;37448;51.588;7.248;2023-08-12T10:28:18;2.30;;;1.80;;
51358;SDS011;37448;51.588;7.248;2023-08-12T10:30:20;3.33;;;2.22;;
51358;SDS011;37448;51.588;7.248;2023-08-12T10:32:21;2.28;;;1.98;;
51358;SDS011;37448;51.588;7.248;2023-08-12T10:34:22;3.22;;;2.20;;
51358;SDS011;37448;51.588;7.248;2023-08-12T10:36:25;3.33;;;2.20;;
51358;SDS011;37448;51.588;7.248;2023-08-12T10:38:27;3.78;;;2.00;;
51358;SDS011;37448;51.588;7.248;2023-08-12T10:40:27;2.03;;;1.60;;
51358;SDS011;37448;51.588;7.248;2023-08-12T10:42:40;3.42;;;2.10;;
51358;SDS011;37448;51.588;7.248;2023-08-12T10:44:50;3.00;;;2.22;;
51358;SDS011;37448;51.588;7.248;2023-08-12T10:46:52;2.50;;;1.85;;
51358;SDS011;37448;51.588;7.248;2023-08-12T10:48:56;2.72;;;1.55;;
51358;SDS011;37448;51.588;7.248;2023-08-12T10:51:10;5.30;;;1.60;;
51358;SDS011;37448;51.588;7.248;2023-08-12T10:53:21;2.78;;;1.48;;
51358;SDS011;37448;51.588;7.248;2023-08-12T10:55:25;3.03;;;1.17;;
51358;SDS011;37448;51.588;7.248;2023-08-12T10:57:36;2.20;;;1.30;;
51358;SDS011;37448;51.588;7.248;2023-08-12T11:00:02;3.20;;;1.30;;
51358;SDS011;37448;51.588;7.248;2023-08-12T11:02:06;2.42;;;1.40;;
51358;SDS011;37448;51.588;7.248;2023-08-12T11:04:18;3.30;;;1.73;;
51358;SDS011;37448;51.588;7.248;2023-08-12T11:06:19;3.00;;;1.58;;
51358;SDS011;37448;51.588;7.248;2023-08-12T11:08:19;1.90;;;1.42;;
51358;SDS011;37448;51.588;7.248;2023-08-12T11:10:25;2.40;;;1.40;;
51358;SDS011;37448;51.588;7.248;2023-08-12T11:14:32;1.55;;;1.40;;
51358;SDS011;37448;51.588;7.248;2023-08-12T11:16:36;1.80;;;1.70;;
51358;SDS011;37448;51.588;7.248;2023-08-12T11:18:37;1.73;;;1.52;;
51358;SDS011;37448;51.588;7.248;2023-08-12T11:20:38;2.33;;;1.58;;
51358;SDS011;37448;51.588;7.248;2023-08-12T11:22:40;2.15;;;1.55;;
51358;SDS011;37448;51.588;7.248;2023-08-12T11:24:41;2.45;;;1.50;;
51358;SDS011;37448;51.588;7.248;2023-08-12T11:26:43;2.40;;;1.23;;
51358;SDS011;37448;51.588;7.248;2023-08-12T11:28:46;1.77;;;1.50;;
51358;SDS011;37448;51.588;7.248;2023-08-12T11:30:47;1.70;;;1.58;;
51358;SDS011;37448;51.588;7.248;2023-08-12T11:32:51;1.90;;;1.70;;
51358;SDS011;37448;51.588;7.248;2023-08-12T11:34:54;1.88;;;1.77;;
51358;SDS011;37448;51.588;7.248;2023-08-12T11:36:54;1.88;;;1.65;;
51358;SDS011;37448;51.588;7.248;2023-08-12T11:38:56;1.92;;;1.73;;
51358;SDS011;37448;51.588;7.248;2023-08-12T11:40:56;2.13;;;1.92;;
51358;SDS011;37448;51.588;7.248;2023-08-12T11:42:57;1.92;;;1.73;;
51358;SDS011;37448;51.588;7.248;2023-08-12T11:44:57;1.77;;;1.67;;
51358;SDS011;37448;51.588;7.248;2023-08-12T11:46:58;2.15;;;1.67;;
51358;SDS011;37448;51.588;7.248;2023-08-12T11:48:58;2.92;;;1.60;;
51358;SDS011;37448;51.588;7.248;2023-08-12T11:50:58;2.13;;;1.50;;
51358;SDS011;37448;51.588;7.248;2023-08-12T11:52:59;1.40;;;1.30;;
51358;SDS011;37448;51.588;7.248;2023-08-12T11:55:00;1.23;;;1.00;;
51358;SDS011;37448;51.588;7.248;2023-08-12T11:57:01;0.98;;;0.88;;
51358;SDS011;37448;51.588;7.248;2023-08-12T11:59:02;1.15;;;1.00;;
51358;SDS011;37448;51.588;7.248;2023-08-12T12:01:03;1.95;;;1.05;;
51358;SDS011;37448;51.588;7.248;2023-08-12T12:03:04;1.25;;;1.15;;
51358;SDS011;37448;51.588;7.248;2023-08-12T12:05:13;1.00;;;0.90;;
51358;SDS011;37448;51.588;7.248;2023-08-12T12:07:17;1.10;;;1.00;;